»·PEaware :: SWA4243 KSNA-KLAS

SWA4243 :: KSNA-KLAS

FLIGHT INFORMATION

Flight Status: Arrived
Operator:
Southwest Airlines
More flights by this operator :: More flights under this callsign
Pilot: Sean Bradley (13609)
Aircraft: BOEING 757-200
(B752)
More flights by this aircraft type
Origin: KSNA John Wayne-Orange Co
United States
Destination: KLAS McCarran Intl
United States
More flights between these airports :: More routes between these airports
Route: +MUSEL8 DAG KEPEC3
File this flight plan on PilotEdge
Remarks:
Altitude:
(Current/Filed)
31,000ft
Speed:
(Current/Filed)
430kts
Departed: 11-Jan-17 09:22 AM
Arrived: 11-Jan-17 10:13 AM
Distance/Time
Traveled:
197nm/0:51
Distance/Time
To Go:
Arrived

Flight Plot

Page will automatically refresh every two minutes.


Map Options




Map Legend


Flown Route
Filed Route
Departure Airport
Arrival Airport
Navaid (VOR, NDB)
Fix

Horizontal Profiles

Position Reports

Time Latitude Longitude Heading Altitude Ground
Speed
11-Jan-17 08:36 33.675744 -117.864700 117 51ft 0kts
11-Jan-17 08:37 33.675744 -117.864700 117 51ft 0kts
11-Jan-17 08:38 33.675744 -117.864700 117 51ft 0kts
11-Jan-17 08:39 33.675744 -117.864700 117 51ft 0kts
11-Jan-17 08:40 33.675744 -117.864700 117 51ft 0kts
11-Jan-17 08:41 33.675744 -117.864700 117 51ft 0kts
11-Jan-17 08:42 33.675744 -117.864700 117 51ft 0kts
11-Jan-17 08:43 33.675744 -117.864700 117 51ft 0kts
11-Jan-17 08:44 33.675744 -117.864700 117 51ft 0kts
11-Jan-17 08:45 33.675744 -117.864700 117 51ft 0kts
11-Jan-17 08:46 33.675744 -117.864700 117 51ft 0kts
11-Jan-17 08:47 33.675744 -117.864700 117 51ft 0kts
11-Jan-17 08:48 33.675744 -117.864700 117 51ft 0kts
11-Jan-17 08:49 33.675744 -117.864700 117 51ft 0kts
11-Jan-17 08:50 33.675744 -117.864700 117 51ft 0kts
11-Jan-17 08:51 33.675744 -117.864700 117 51ft 0kts
11-Jan-17 08:54 33.675744 -117.864700 117 51ft 0kts
11-Jan-17 08:55 33.675744 -117.864700 117 51ft 0kts
11-Jan-17 08:56 33.675744 -117.864700 117 51ft 0kts
11-Jan-17 08:57 33.675744 -117.864700 117 51ft 0kts
11-Jan-17 08:58 33.675744 -117.864700 117 51ft 0kts
11-Jan-17 08:59 33.675744 -117.864700 117 51ft 0kts
11-Jan-17 09:00 33.675744 -117.864700 117 51ft 0kts
11-Jan-17 09:01 33.675744 -117.864700 117 51ft 0kts
11-Jan-17 09:02 33.675744 -117.864700 117 51ft 0kts
11-Jan-17 09:03 33.675744 -117.864700 117 51ft 0kts
11-Jan-17 09:04 33.675744 -117.864700 117 51ft 0kts
11-Jan-17 09:05 33.675744 -117.864700 117 51ft 0kts
11-Jan-17 09:06 33.675744 -117.864700 117 51ft 0kts
11-Jan-17 09:07 33.675824 -117.864882 117 51ft 2kts
11-Jan-17 09:08 33.675814 -117.865338 50 51ft 1kts
11-Jan-17 09:09 33.675677 -117.865475 27 52ft 0kts
11-Jan-17 09:10 33.675677 -117.865475 27 52ft 0kts
11-Jan-17 09:11 33.675677 -117.865475 27 52ft 0kts
11-Jan-17 09:12 33.675677 -117.865475 27 52ft 0kts
11-Jan-17 09:13 33.675677 -117.865475 27 52ft 0kts
11-Jan-17 09:14 33.675922 -117.865319 27 51ft 7kts
11-Jan-17 09:15 33.679104 -117.863337 27 47ft 15kts
11-Jan-17 09:16 33.680572 -117.862947 304 47ft 0kts
11-Jan-17 09:17 33.680572 -117.862947 304 47ft 0kts
11-Jan-17 09:18 33.680572 -117.862947 304 47ft 0kts
11-Jan-17 09:19 33.680572 -117.862947 304 47ft 0kts
11-Jan-17 09:20 33.680706 -117.863193 302 47ft 6kts
11-Jan-17 09:21 33.681213 -117.865312 208 48ft 0kts
11-Jan-17 09:22 33.671024 -117.871730 206 191ft 146kts
11-Jan-17 09:23 33.630727 -117.884135 191 2401ft 197kts
11-Jan-17 09:24 33.591448 -117.891380 193 4181ft 240kts
11-Jan-17 09:25 33.546687 -117.914264 247 7055ft 235kts
11-Jan-17 09:26 33.551074 -117.984471 302 10050ft 246kts
11-Jan-17 09:27 33.607464 -118.015020 354 11572ft 339kts
11-Jan-17 09:28 33.697306 -118.029769 338 14350ft 360kts
11-Jan-17 09:29 33.796216 -118.040347 7 17224ft 413kts
11-Jan-17 09:30 33.876900 -117.974637 31 19229ft 456kts
11-Jan-17 09:31 33.972452 -117.885503 28 21396ft 473kts
11-Jan-17 09:32 34.086012 -117.777679 38 23612ft 503kts
11-Jan-17 09:33 34.159233 -117.680160 41 25019ft 519kts
11-Jan-17 09:34 34.251443 -117.556773 41 26646ft 534kts
11-Jan-17 09:35 34.345317 -117.436926 40 27972ft 548kts
11-Jan-17 09:36 34.438987 -117.310378 43 29691ft 551kts
11-Jan-17 09:37 34.535852 -117.171603 43 31036ft 549kts
11-Jan-17 09:38 34.625920 -117.045632 42 31036ft 545kts
11-Jan-17 09:39 34.718792 -116.917630 42 31007ft 545kts
11-Jan-17 09:40 34.813857 -116.786359 41 30946ft 553kts
11-Jan-17 09:41 34.914079 -116.647438 42 28085ft 547kts
11-Jan-17 09:42 35.013481 -116.517309 38 26040ft 528kts
11-Jan-17 09:43 35.098891 -116.412710 37 24185ft 508kts
11-Jan-17 09:44 35.176382 -116.316958 39 22875ft 501kts
11-Jan-17 09:45 35.255169 -116.218161 39 21807ft 473kts
11-Jan-17 09:46 35.331170 -116.122625 39 19621ft 456kts
11-Jan-17 09:47 35.405178 -116.029226 39 17968ft 439kts
11-Jan-17 09:48 35.478436 -115.936542 39 16434ft 427kts
11-Jan-17 09:49 35.544907 -115.852208 39 15065ft 414kts
11-Jan-17 09:50 35.622654 -115.753266 40 13304ft 401kts
11-Jan-17 09:51 35.692981 -115.659933 39 13087ft 357kts
11-Jan-17 09:52 35.751987 -115.590295 18 13091ft 338kts
11-Jan-17 09:53 35.825224 -115.574050 351 13093ft 309kts
11-Jan-17 09:54 35.892857 -115.569446 350 13093ft 308kts
11-Jan-17 09:55 35.961167 -115.555673 19 12997ft 338kts
11-Jan-17 09:56 36.006870 -115.469698 74 12067ft 365kts
11-Jan-17 09:57 36.029613 -115.364833 92 10960ft 360kts
11-Jan-17 09:58 36.023987 -115.272382 98 9987ft 339kts
11-Jan-17 09:59 36.016308 -115.163158 97 8346ft 336kts
11-Jan-17 10:00 36.009566 -115.060925 97 8033ft 285kts
11-Jan-17 10:01 36.003958 -114.966909 97 8037ft 282kts
11-Jan-17 10:02 35.998439 -114.875366 97 8074ft 282kts
11-Jan-17 10:03 35.999029 -114.783183 59 7632ft 287kts
11-Jan-17 10:04 36.049713 -114.767756 296 6800ft 177kts
11-Jan-17 10:05 36.060488 -114.819997 271 5931ft 163kts
11-Jan-17 10:06 36.066009 -114.871070 270 5236ft 166kts
11-Jan-17 10:07 36.069943 -114.914477 258 5017ft 167kts
11-Jan-17 10:08 36.072456 -114.960874 264 4651ft 171kts
11-Jan-17 10:09 36.073541 -115.009639 261 3863ft 145kts
11-Jan-17 10:10 36.073650 -115.052251 260 3288ft 147kts
11-Jan-17 10:11 36.073995 -115.088896 266 2552ft 137kts
11-Jan-17 10:12 36.073791 -115.122847 262 2104ft 125kts
11-Jan-17 10:13 36.073775 -115.143077 285 2098ft 33kts
11-Jan-17 10:14 36.077369 -115.146653 338 2106ft 19kts
11-Jan-17 10:15 36.079819 -115.147303 55 2101ft 2kts
11-Jan-17 10:16 36.079903 -115.147149 55 2100ft 0kts
11-Jan-17 10:17 36.079903 -115.147149 55 2100ft 0kts
11-Jan-17 10:18 36.079903 -115.147149 55 2100ft 0kts
11-Jan-17 10:19 36.079903 -115.147149 55 2100ft 0kts
11-Jan-17 10:20 36.079903 -115.147149 55 2100ft 0kts

Navigation Log

Ident Type
1. KSNA Airport
2. MUSEL Fix
3. MUSEL Fix
4. SLI Navaid
5. POM Navaid
6. GARDY Fix
7. DAG Navaid
8. DAG Navaid
9. MISEN Fix
10. CLARR Fix
11. SKEBR Fix
12. KEPEC Fix
13. IPUMY Fix
14. NIPZO Fix
15. SUNST Fix
16. KIMME Fix
17. CHIPZ Fix
18. POKRR Fix
19. PRINO Fix
20. KLAS Airport